SBGO/GYN METAR and TAF weather

Enter ICAO airport designator
Station Type Date Time Source
SBGO METAR 2023/01/29 19:24 UTC NOAA

SBGO 291924Z 15013KT 4000 -TSRA BKN040 FEW045CB 21/19 Q1013 RERA


Station Type Date Time Source
SBGO Decoded METAR 2023/01/29 19:24 UTC NOAA

Goiania Aeroporto , Brazil (SBGO) 16-38S 049-13W
Jan 29, 2023 - 02:24 PM EST / 2023.01.29 1924 UTC
Wind: from the SSE (150 degrees) at 15 MPH (13 KT):0
Visibility: 2 mile(s):0
Sky conditions: mostly cloudy
Weather: light rain with thunder; Cumulonimbus clouds observed
Temperature: 69 F (21 C)
Dew Point: 66 F (19 C)
Relative Humidity: 88%
Pressure (altimeter): 29.91 in. Hg (1013 hPa)
ob: SBGO 291924Z 15013KT 4000 -TSRA BKN040 FEW045CB 21/19 Q1013 RERA
cycle: 19

Station Type Date Time Source
SBGO TAF 2023/01/29 18:00 UTC NOAA

TAF SBGO 291650Z 2918/3018 13005KT 9999 SCT035 FEW045TCU TN20/3009Z TX28/3017Z PROB30 2919/2923 TSRA BKN030 FEW040CB
BECMG 3000/3002 00000KT FEW045
BECMG 3010/3012 06007KT SCT040 FEW045TCU PROB30 3012/3016 TSRA BKN035 FEW040CB
RMK PGG

Example: see airport list